sensor_id;sensor_type;location;lat;lon;timestamp;pressure;altitude;pressure_sealevel;temperature;humidity
79663;BME280;69130;48.724;8.982;2023-04-21T00:01:48;96111.66;;;1.75;97.76
79663;BME280;69130;48.724;8.982;2023-04-21T00:04:13;96103.91;;;1.73;97.37
79663;BME280;69130;48.724;8.982;2023-04-21T00:06:39;96104.94;;;1.69;97.46
79663;BME280;69130;48.724;8.982;2023-04-21T00:09:06;96102.34;;;1.69;97.63
79663;BME280;69130;48.724;8.982;2023-04-21T00:11:32;96103.06;;;1.73;97.94
79663;BME280;69130;48.724;8.982;2023-04-21T00:13:57;96108.19;;;1.74;98.02
79663;BME280;69130;48.724;8.982;2023-04-21T00:16:22;96102.19;;;1.72;98.02
79663;BME280;69130;48.724;8.982;2023-04-21T00:18:48;96106.28;;;1.80;98.37
79663;BME280;69130;48.724;8.982;2023-04-21T00:21:13;96102.88;;;1.77;97.76
79663;BME280;69130;48.724;8.982;2023-04-21T00:23:39;96095.16;;;1.74;97.81
79663;BME280;69130;48.724;8.982;2023-04-21T00:26:04;96094.31;;;1.74;97.99
79663;BME280;69130;48.724;8.982;2023-04-21T00:28:29;96093.72;;;1.67;97.54
79663;BME280;69130;48.724;8.982;2023-04-21T00:30:55;96095.53;;;1.65;97.67
79663;BME280;69130;48.724;8.982;2023-04-21T00:33:20;96089.47;;;1.65;97.88
79663;BME280;69130;48.724;8.982;2023-04-21T00:35:46;96085.75;;;1.70;97.86
79663;BME280;69130;48.724;8.982;2023-04-21T00:38:11;96076.91;;;1.74;98.22
79663;BME280;69130;48.724;8.982;2023-04-21T00:40:37;96080.19;;;1.80;98.22
79663;BME280;69130;48.724;8.982;2023-04-21T00:43:05;96069.63;;;1.83;98.39
79663;BME280;69130;48.724;8.982;2023-04-21T00:45:31;96078.16;;;1.86;98.54
79663;BME280;69130;48.724;8.982;2023-04-21T00:47:57;96074.44;;;1.92;98.62
79663;BME280;69130;48.724;8.982;2023-04-21T00:50:23;96071.72;;;1.95;98.51
79663;BME280;69130;48.724;8.982;2023-04-21T00:52:49;96087.31;;;1.96;98.34
79663;BME280;69130;48.724;8.982;2023-04-21T00:55:15;96086.34;;;1.99;98.18
79663;BME280;69130;48.724;8.982;2023-04-21T00:57:40;96086.88;;;2.07;98.58
79663;BME280;69130;48.724;8.982;2023-04-21T01:00:07;96074.66;;;2.07;98.71
79663;BME280;69130;48.724;8.982;2023-04-21T01:02:38;96082.47;;;2.09;98.71
79663;BME280;69130;48.724;8.982;2023-04-21T01:05:04;96077.34;;;2.06;98.58
79663;BME280;69130;48.724;8.982;2023-04-21T01:07:34;96082.63;;;2.04;98.29
79663;BME280;69130;48.724;8.982;2023-04-21T01:10:00;96074.28;;;1.96;98.41
79663;BME280;69130;48.724;8.982;2023-04-21T01:12:25;96071.66;;;1.96;97.99
79663;BME280;69130;48.724;8.982;2023-04-21T01:14:51;96072.44;;;1.98;98.04
79663;BME280;69130;48.724;8.982;2023-04-21T01:17:16;96073.56;;;1.93;98.04
79663;BME280;69130;48.724;8.982;2023-04-21T01:19:43;96070.28;;;1.88;98.32
79663;BME280;69130;48.724;8.982;2023-04-21T01:22:10;96067.09;;;1.81;98.28
79663;BME280;69130;48.724;8.982;2023-04-21T01:24:44;96072.38;;;1.80;97.99
79663;BME280;69130;48.724;8.982;2023-04-21T01:27:16;96067.44;;;1.72;98.14
79663;BME280;69130;48.724;8.982;2023-04-21T01:29:44;96074.72;;;1.64;97.84
79663;BME280;69130;48.724;8.982;2023-04-21T01:32:17;96074.22;;;1.54;97.88
79663;BME280;69130;48.724;8.982;2023-04-21T01:34:43;96085.88;;;1.46;97.84
79663;BME280;69130;48.724;8.982;2023-04-21T01:37:11;96080.94;;;1.38;97.53
79663;BME280;69130;48.724;8.982;2023-04-21T01:39:42;96083.06;;;1.29;97.97
79663;BME280;69130;48.724;8.982;2023-04-21T01:42:07;96083.34;;;1.21;97.59
79663;BME280;69130;48.724;8.982;2023-04-21T01:44:34;96084.44;;;1.16;98.06
79663;BME280;69130;48.724;8.982;2023-04-21T01:46:59;96075.91;;;1.12;98.27
79663;BME280;69130;48.724;8.982;2023-04-21T01:49:25;96079.53;;;1.08;98.24
79663;BME280;69130;48.724;8.982;2023-04-21T01:51:51;96084.25;;;0.99;98.03
79663;BME280;69130;48.724;8.982;2023-04-21T01:54:16;96083.59;;;0.92;97.72
79663;BME280;69130;48.724;8.982;2023-04-21T01:56:41;96085.56;;;0.85;97.64
79663;BME280;69130;48.724;8.982;2023-04-21T01:59:07;96075.38;;;0.79;97.89
79663;BME280;69130;48.724;8.982;2023-04-21T02:01:32;96075.44;;;0.78;98.00
79663;BME280;69130;48.724;8.982;2023-04-21T02:04:00;96078.25;;;0.72;97.92
79663;BME280;69130;48.724;8.982;2023-04-21T02:06:25;96084.41;;;0.69;97.91
79663;BME280;69130;48.724;8.982;2023-04-21T02:08:50;96087.09;;;0.68;97.88
79663;BME280;69130;48.724;8.982;2023-04-21T02:11:15;96086.41;;;0.63;97.87
79663;BME280;69130;48.724;8.982;2023-04-21T02:13:41;96077.00;;;0.59;97.89
79663;BME280;69130;48.724;8.982;2023-04-21T02:16:06;96084.03;;;0.57;97.77
79663;BME280;69130;48.724;8.982;2023-04-21T02:18:32;96080.72;;;0.52;97.92
79663;BME280;69130;48.724;8.982;2023-04-21T02:20:58;96076.66;;;0.45;98.04
79663;BME280;69130;48.724;8.982;2023-04-21T02:23:23;96079.47;;;0.39;97.83
79663;BME280;69130;48.724;8.982;2023-04-21T02:25:49;96072.53;;;0.38;97.87
79663;BME280;69130;48.724;8.982;2023-04-21T02:28:14;96076.13;;;0.35;97.96
79663;BME280;69130;48.724;8.982;2023-04-21T02:30:40;96075.22;;;0.36;98.13
79663;BME280;69130;48.724;8.982;2023-04-21T02:33:05;96078.81;;;0.32;97.75
79663;BME280;69130;48.724;8.982;2023-04-21T02:35:30;96071.94;;;0.31;97.99
79663;BME280;69130;48.724;8.982;2023-04-21T02:37:57;96083.97;;;0.34;98.19
79663;BME280;69130;48.724;8.982;2023-04-21T02:40:23;96085.69;;;0.35;98.20
79663;BME280;69130;48.724;8.982;2023-04-21T02:42:48;96080.34;;;0.38;98.23
79663;BME280;69130;48.724;8.982;2023-04-21T02:45:13;96086.06;;;0.49;98.57
79663;BME280;69130;48.724;8.982;2023-04-21T02:47:39;96084.06;;;0.55;98.84
79663;BME280;69130;48.724;8.982;2023-04-21T02:50:05;96088.47;;;0.53;98.89
79663;BME280;69130;48.724;8.982;2023-04-21T02:52:34;96087.31;;;0.62;98.92
79663;BME280;69130;48.724;8.982;2023-04-21T02:55:01;96089.41;;;0.75;98.90
79663;BME280;69130;48.724;8.982;2023-04-21T02:57:27;96091.97;;;0.77;98.75
79663;BME280;69130;48.724;8.982;2023-04-21T02:59:52;96087.72;;;0.74;98.53
79663;BME280;69130;48.724;8.982;2023-04-21T03:02:18;96087.03;;;0.69;98.08
79663;BME280;69130;48.724;8.982;2023-04-21T03:04:43;96089.03;;;0.63;98.12
79663;BME280;69130;48.724;8.982;2023-04-21T03:07:12;96079.66;;;0.57;98.44
79663;BME280;69130;48.724;8.982;2023-04-21T03:09:38;96072.69;;;0.58;98.46
79663;BME280;69130;48.724;8.982;2023-04-21T03:12:04;96075.38;;;0.56;98.29
79663;BME280;69130;48.724;8.982;2023-04-21T03:14:29;96069.50;;;0.51;98.20
79663;BME280;69130;48.724;8.982;2023-04-21T03:16:54;96064.50;;;0.45;97.73
79663;BME280;69130;48.724;8.982;2023-04-21T03:19:20;96062.78;;;0.44;98.17
79663;BME280;69130;48.724;8.982;2023-04-21T03:21:45;96063.84;;;0.39;98.31
79663;BME280;69130;48.724;8.982;2023-04-21T03:24:11;96064.00;;;0.34;98.32
79663;BME280;69130;48.724;8.982;2023-04-21T03:26:38;96064.22;;;0.28;98.26
79663;BME280;69130;48.724;8.982;2023-04-21T03:29:04;96066.88;;;0.27;98.30
79663;BME280;69130;48.724;8.982;2023-04-21T03:31:30;96064.44;;;0.22;98.31
79663;BME280;69130;48.724;8.982;2023-04-21T03:33:55;96067.28;;;0.15;98.11
79663;BME280;69130;48.724;8.982;2023-04-21T03:36:21;96072.63;;;0.12;98.08
79663;BME280;69130;48.724;8.982;2023-04-21T03:38:46;96070.91;;;0.11;98.20
79663;BME280;69130;48.724;8.982;2023-04-21T03:41:12;96070.84;;;0.12;98.30
79663;BME280;69130;48.724;8.982;2023-04-21T03:43:37;96068.84;;;0.20;98.62
79663;BME280;69130;48.724;8.982;2023-04-21T03:46:03;96076.63;;;0.20;98.45
79663;BME280;69130;48.724;8.982;2023-04-21T03:48:28;96071.16;;;0.28;98.71
79663;BME280;69130;48.724;8.982;2023-04-21T03:50:54;96065.88;;;0.31;98.87
79663;BME280;69130;48.724;8.982;2023-04-21T03:53:19;96065.88;;;0.31;98.61
79663;BME280;69130;48.724;8.982;2023-04-21T03:55:44;96072.09;;;0.27;98.66
79663;BME280;69130;48.724;8.982;2023-04-21T03:58:14;96063.59;;;0.22;98.11
79663;BME280;69130;48.724;8.982;2023-04-21T04:00:39;96073.16;;;0.21;98.27
79663;BME280;69130;48.724;8.982;2023-04-21T04:03:05;96064.53;;;0.19;98.42
79663;BME280;69130;48.724;8.982;2023-04-21T04:05:31;96065.59;;;0.14;98.23
79663;BME280;69130;48.724;8.982;2023-04-21T04:07:57;96067.41;;;0.12;98.20
79663;BME280;69130;48.724;8.982;2023-04-21T04:10:22;96063.94;;;0.11;98.47
79663;BME280;69130;48.724;8.982;2023-04-21T04:12:48;96054.50;;;0.09;98.27
79663;BME280;69130;48.724;8.982;2023-04-21T04:15:13;96057.25;;;0.04;98.17
79663;BME280;69130;48.724;8.982;2023-04-21T04:17:39;96063.47;;;0.00;98.06
79663;BME280;69130;48.724;8.982;2023-04-21T04:20:06;96070.25;;;0.04;97.97
79663;BME280;69130;48.724;8.982;2023-04-21T04:22:32;96076.31;;;0.05;98.01
79663;BME280;69130;48.724;8.982;2023-04-21T04:24:58;96072.63;;;0.10;98.37
79663;BME280;69130;48.724;8.982;2023-04-21T04:27:25;96083.91;;;0.11;98.50
79663;BME280;69130;48.724;8.982;2023-04-21T04:29:51;96086.34;;;0.15;98.35
79663;BME280;69130;48.724;8.982;2023-04-21T04:32:17;96075.09;;;0.15;98.35
79663;BME280;69130;48.724;8.982;2023-04-21T04:34:42;96069.84;;;0.16;98.58
79663;BME280;69130;48.724;8.982;2023-04-21T04:37:08;96074.09;;;0.19;98.66
79663;BME280;69130;48.724;8.982;2023-04-21T04:39:35;96068.09;;;0.17;98.56
79663;BME280;69130;48.724;8.982;2023-04-21T04:42:01;96073.22;;;0.18;98.17
79663;BME280;69130;48.724;8.982;2023-04-21T04:44:28;96078.41;;;0.20;98.52
79663;BME280;69130;48.724;8.982;2023-04-21T04:46:53;96064.59;;;0.18;98.27
79663;BME280;69130;48.724;8.982;2023-04-21T04:49:19;96076.84;;;0.14;97.96
79663;BME280;69130;48.724;8.982;2023-04-21T04:51:44;96074.94;;;0.19;98.20
79663;BME280;69130;48.724;8.982;2023-04-21T04:54:09;96078.19;;;0.26;98.33
79663;BME280;69130;48.724;8.982;2023-04-21T04:56:35;96079.75;;;0.31;98.29
79663;BME280;69130;48.724;8.982;2023-04-21T04:59:01;96082.38;;;0.30;97.96
79663;BME280;69130;48.724;8.982;2023-04-21T05:01:26;96091.16;;;0.27;98.10
79663;BME280;69130;48.724;8.982;2023-04-21T05:03:55;96079.81;;;0.28;98.14
79663;BME280;69130;48.724;8.982;2023-04-21T05:06:20;96081.41;;;0.32;98.26
79663;BME280;69130;48.724;8.982;2023-04-21T05:08:45;96087.34;;;0.36;97.98
79663;BME280;69130;48.724;8.982;2023-04-21T05:11:11;96095.00;;;0.40;98.09
79663;BME280;69130;48.724;8.982;2023-04-21T05:13:36;96092.94;;;0.50;98.31
79663;BME280;69130;48.724;8.982;2023-04-21T05:16:02;96101.34;;;0.58;98.36
79663;BME280;69130;48.724;8.982;2023-04-21T05:18:28;96103.72;;;0.64;98.19
79663;BME280;69130;48.724;8.982;2023-04-21T05:20:53;96108.50;;;0.76;97.96
79663;BME280;69130;48.724;8.982;2023-04-21T05:23:18;96115.75;;;0.91;97.86
79663;BME280;69130;48.724;8.982;2023-04-21T05:25:44;96111.69;;;1.07;97.68
79663;BME280;69130;48.724;8.982;2023-04-21T05:28:10;96106.56;;;1.27;97.40
79663;BME280;69130;48.724;8.982;2023-04-21T05:30:35;96109.28;;;1.47;97.14
79663;BME280;69130;48.724;8.982;2023-04-21T05:33:01;96106.56;;;1.72;97.04
79663;BME280;69130;48.724;8.982;2023-04-21T05:35:29;96111.22;;;1.86;96.69
79663;BME280;69130;48.724;8.982;2023-04-21T05:37:55;96119.59;;;1.94;96.53
79663;BME280;69130;48.724;8.982;2023-04-21T05:40:20;96111.91;;;1.91;95.42
79663;BME280;69130;48.724;8.982;2023-04-21T05:42:45;96121.00;;;2.02;95.84
79663;BME280;69130;48.724;8.982;2023-04-21T05:45:11;96127.91;;;2.03;95.64
79663;BME280;69130;48.724;8.982;2023-04-21T05:47:36;96119.59;;;1.94;95.66
79663;BME280;69130;48.724;8.982;2023-04-21T05:50:03;96109.28;;;1.91;95.11
79663;BME280;69130;48.724;8.982;2023-04-21T05:52:28;96108.56;;;1.87;95.75
79663;BME280;69130;48.724;8.982;2023-04-21T05:54:54;96111.41;;;1.81;95.76
79663;BME280;69130;48.724;8.982;2023-04-21T05:57:19;96106.94;;;1.85;95.58
79663;BME280;69130;48.724;8.982;2023-04-21T05:59:45;96112.00;;;1.88;95.51
79663;BME280;69130;48.724;8.982;2023-04-21T06:02:10;96110.94;;;1.93;94.88
79663;BME280;69130;48.724;8.982;2023-04-21T06:04:36;96109.44;;;2.08;94.74
79663;BME280;69130;48.724;8.982;2023-04-21T06:07:05;96103.72;;;2.20;94.34
79663;BME280;69130;48.724;8.982;2023-04-21T06:09:31;96098.00;;;2.32;94.54
79663;BME280;69130;48.724;8.982;2023-04-21T06:11:57;96101.06;;;2.41;93.54
79663;BME280;69130;48.724;8.982;2023-04-21T06:14:22;96095.22;;;2.56;93.57
79663;BME280;69130;48.724;8.982;2023-04-21T06:16:48;96088.91;;;2.60;93.21
79663;BME280;69130;48.724;8.982;2023-04-21T06:19:13;96086.63;;;2.73;93.19
79663;BME280;69130;48.724;8.982;2023-04-21T06:21:38;96088.84;;;2.82;92.40
79663;BME280;69130;48.724;8.982;2023-04-21T06:24:04;96098.50;;;3.19;91.81
79663;BME280;69130;48.724;8.982;2023-04-21T06:26:29;96090.91;;;3.33;89.31
79663;BME280;69130;48.724;8.982;2023-04-21T06:28:54;96096.09;;;3.51;89.78
79663;BME280;69130;48.724;8.982;2023-04-21T06:31:20;96096.69;;;3.58;88.68
79663;BME280;69130;48.724;8.982;2023-04-21T06:33:45;96099.84;;;3.65;88.67
79663;BME280;69130;48.724;8.982;2023-04-21T06:36:10;96096.03;;;3.72;89.41
79663;BME280;69130;48.724;8.982;2023-04-21T06:38:36;96102.59;;;3.80;88.77
79663;BME280;69130;48.724;8.982;2023-04-21T06:41:03;96109.59;;;4.15;85.43
79663;BME280;69130;48.724;8.982;2023-04-21T06:43:30;96102.66;;;4.66;86.35
79663;BME280;69130;48.724;8.982;2023-04-21T06:45:56;96089.81;;;6.51;79.60
79663;BME280;69130;48.724;8.982;2023-04-21T06:48:21;96079.94;;;8.63;72.23
79663;BME280;69130;48.724;8.982;2023-04-21T06:50:46;96077.25;;;10.37;67.30
79663;BME280;69130;48.724;8.982;2023-04-21T06:53:12;96076.41;;;12.39;58.53
79663;BME280;69130;48.724;8.982;2023-04-21T06:55:37;96089.78;;;13.83;57.47
79663;BME280;69130;48.724;8.982;2023-04-21T06:58:02;96087.31;;;15.09;51.11
79663;BME280;69130;48.724;8.982;2023-04-21T07:00:28;96085.31;;;15.21;50.34
79663;BME280;69130;48.724;8.982;2023-04-21T07:02:53;96086.16;;;14.64;52.98
79663;BME280;69130;48.724;8.982;2023-04-21T07:05:18;96074.50;;;15.32;50.22
79663;BME280;69130;48.724;8.982;2023-04-21T07:07:44;96072.97;;;15.39;49.47
79663;BME280;69130;48.724;8.982;2023-04-21T07:10:09;96075.22;;;14.76;49.92
79663;BME280;69130;48.724;8.982;2023-04-21T07:12:35;96072.63;;;14.37;51.23
79663;BME280;69130;48.724;8.982;2023-04-21T07:15:00;96075.03;;;14.40;52.12
79663;BME280;69130;48.724;8.982;2023-04-21T07:17:26;96074.06;;;16.29;47.95
79663;BME280;69130;48.724;8.982;2023-04-21T07:19:51;96065.19;;;16.83;47.19
79663;BME280;69130;48.724;8.982;2023-04-21T07:22:16;96071.38;;;18.55;44.81
79663;BME280;69130;48.724;8.982;2023-04-21T07:24:42;96068.53;;;17.89;42.71
79663;BME280;69130;48.724;8.982;2023-04-21T07:27:07;96069.81;;;17.16;44.22
79663;BME280;69130;48.724;8.982;2023-04-21T07:29:33;96063.72;;;14.76;50.59
79663;BME280;69130;48.724;8.982;2023-04-21T07:31:58;96072.75;;;13.35;54.41
79663;BME280;69130;48.724;8.982;2023-04-21T07:34:24;96077.34;;;11.40;58.88
79663;BME280;69130;48.724;8.982;2023-04-21T07:36:50;96071.81;;;9.79;64.97
79663;BME280;69130;48.724;8.982;2023-04-21T07:39:16;96067.00;;;9.97;66.40
79663;BME280;69130;48.724;8.982;2023-04-21T07:41:41;96070.63;;;9.83;66.47
79663;BME280;69130;48.724;8.982;2023-04-21T07:44:06;96074.59;;;9.65;66.14
79663;BME280;69130;48.724;8.982;2023-04-21T07:46:32;96073.91;;;9.87;67.92
79663;BME280;69130;48.724;8.982;2023-04-21T07:48:58;96064.44;;;10.79;62.79
79663;BME280;69130;48.724;8.982;2023-04-21T07:51:24;96070.75;;;11.79;61.30
79663;BME280;69130;48.724;8.982;2023-04-21T07:53:49;96065.88;;;12.17;59.86
79663;BME280;69130;48.724;8.982;2023-04-21T07:56:15;96058.69;;;14.54;55.92
79663;BME280;69130;48.724;8.982;2023-04-21T07:58:40;96058.16;;;17.42;46.70
79663;BME280;69130;48.724;8.982;2023-04-21T08:01:06;96057.25;;;19.10;42.27
79663;BME280;69130;48.724;8.982;2023-04-21T08:03:31;96058.19;;;21.59;37.25
79663;BME280;69130;48.724;8.982;2023-04-21T08:05:57;96065.66;;;22.68;34.41
79663;BME280;69130;48.724;8.982;2023-04-21T08:08:22;96057.75;;;22.37;36.07
79663;BME280;69130;48.724;8.982;2023-04-21T08:10:47;96051.50;;;22.66;35.31
79663;BME280;69130;48.724;8.982;2023-04-21T08:13:13;96051.00;;;25.13;31.39
79663;BME280;69130;48.724;8.982;2023-04-21T08:15:38;96044.84;;;23.82;32.98
79663;BME280;69130;48.724;8.982;2023-04-21T08:18:04;96043.03;;;24.98;29.89
79663;BME280;69130;48.724;8.982;2023-04-21T08:20:29;96052.88;;;25.12;30.99
79663;BME280;69130;48.724;8.982;2023-04-21T08:22:55;96050.03;;;25.33;31.77
79663;BME280;69130;48.724;8.982;2023-04-21T08:25:20;96043.03;;;25.84;29.83
79663;BME280;69130;48.724;8.982;2023-04-21T08:27:46;96047.31;;;26.57;29.86
79663;BME280;69130;48.724;8.982;2023-04-21T08:30:11;96045.88;;;27.12;27.53
79663;BME280;69130;48.724;8.982;2023-04-21T08:32:37;96043.84;;;25.98;28.82
79663;BME280;69130;48.724;8.982;2023-04-21T08:35:02;96048.22;;;25.60;29.72
79663;BME280;69130;48.724;8.982;2023-04-21T08:37:28;96044.25;;;26.02;31.39
79663;BME280;69130;48.724;8.982;2023-04-21T08:39:53;96046.09;;;27.11;30.14
79663;BME280;69130;48.724;8.982;2023-04-21T08:42:19;96045.47;;;26.51;28.70
79663;BME280;69130;48.724;8.982;2023-04-21T08:44:45;96050.06;;;25.59;30.84
79663;BME280;69130;48.724;8.982;2023-04-21T08:47:13;96049.69;;;26.15;29.09
79663;BME280;69130;48.724;8.982;2023-04-21T08:49:40;96037.78;;;25.70;30.04
79663;BME280;69130;48.724;8.982;2023-04-21T08:52:07;96053.19;;;26.41;30.24
79663;BME280;69130;48.724;8.982;2023-04-21T08:54:33;96047.72;;;26.61;28.10
79663;BME280;69130;48.724;8.982;2023-04-21T08:57:00;96051.38;;;24.96;30.46
79663;BME280;69130;48.724;8.982;2023-04-21T08:59:27;96044.88;;;25.45;30.06
79663;BME280;69130;48.724;8.982;2023-04-21T09:02:24;96053.63;;;25.79;30.35
79663;BME280;69130;48.724;8.982;2023-04-21T09:04:50;96041.34;;;26.10;30.83
79663;BME280;69130;48.724;8.982;2023-04-21T09:07:30;96045.84;;;26.61;30.08
79663;BME280;69130;48.724;8.982;2023-04-21T09:09:56;96046.22;;;27.29;27.38
79663;BME280;69130;48.724;8.982;2023-04-21T09:12:22;96051.88;;;27.21;27.04
79663;BME280;69130;48.724;8.982;2023-04-21T09:14:48;96045.81;;;26.68;27.25
79663;BME280;69130;48.724;8.982;2023-04-21T09:17:15;96045.16;;;25.09;30.31
79663;BME280;69130;48.724;8.982;2023-04-21T09:19:41;96042.44;;;25.02;32.62
79663;BME280;69130;48.724;8.982;2023-04-21T09:22:07;96032.22;;;24.91;32.62
79663;BME280;69130;48.724;8.982;2023-04-21T09:24:32;96037.78;;;25.50;29.13
79663;BME280;69130;48.724;8.982;2023-04-21T09:26:57;96033.22;;;26.10;30.17
79663;BME280;69130;48.724;8.982;2023-04-21T09:29:24;96030.28;;;27.32;27.21
79663;BME280;69130;48.724;8.982;2023-04-21T09:31:50;96027.16;;;27.91;28.45
79663;BME280;69130;48.724;8.982;2023-04-21T09:34:23;96029.88;;;28.95;26.95
79663;BME280;69130;48.724;8.982;2023-04-21T09:37:02;96027.34;;;29.11;25.28
79663;BME280;69130;48.724;8.982;2023-04-21T09:39:30;96031.31;;;29.15;27.35
79663;BME280;69130;48.724;8.982;2023-04-21T09:41:56;96041.38;;;28.97;26.06
79663;BME280;69130;48.724;8.982;2023-04-21T09:44:25;96036.44;;;29.05;27.00
79663;BME280;69130;48.724;8.982;2023-04-21T09:46:54;96037.22;;;28.94;25.70
79663;BME280;69130;48.724;8.982;2023-04-21T09:49:24;96042.00;;;28.81;25.02
79663;BME280;69130;48.724;8.982;2023-04-21T09:51:54;96031.38;;;28.91;26.72
79663;BME280;69130;48.724;8.982;2023-04-21T09:54:20;96028.94;;;27.79;27.31
79663;BME280;69130;48.724;8.982;2023-04-21T09:56:52;96020.69;;;29.55;24.46
79663;BME280;69130;48.724;8.982;2023-04-21T09:59:24;96010.38;;;28.80;26.40
79663;BME280;69130;48.724;8.982;2023-04-21T10:01:52;96014.19;;;30.32;24.99
79663;BME280;69130;48.724;8.982;2023-04-21T10:04:20;96007.50;;;29.52;26.23
79663;BME280;69130;48.724;8.982;2023-04-21T10:06:47;96005.91;;;31.41;24.18
79663;BME280;69130;48.724;8.982;2023-04-21T10:09:15;96007.22;;;31.39;24.58
79663;BME280;69130;48.724;8.982;2023-04-21T10:11:42;96005.94;;;30.90;24.03
79663;BME280;69130;48.724;8.982;2023-04-21T10:14:08;96006.00;;;30.44;24.49
79663;BME280;69130;48.724;8.982;2023-04-21T10:16:36;96007.72;;;30.15;24.61
79663;BME280;69130;48.724;8.982;2023-04-21T10:19:22;96000.75;;;30.54;23.63
79663;BME280;69130;48.724;8.982;2023-04-21T10:21:49;96009.88;;;30.59;25.72
79663;BME280;69130;48.724;8.982;2023-04-21T10:24:14;96002.53;;;30.02;25.39
79663;BME280;69130;48.724;8.982;2023-04-21T10:26:42;96006.75;;;30.90;24.04
79663;BME280;69130;48.724;8.982;2023-04-21T10:29:08;95996.63;;;32.04;22.42
79663;BME280;69130;48.724;8.982;2023-04-21T10:31:52;95998.94;;;30.13;25.04
79663;BME280;69130;48.724;8.982;2023-04-21T10:34:27;96000.97;;;30.17;25.83
79663;BME280;69130;48.724;8.982;2023-04-21T10:39:32;95990.19;;;30.57;24.73
79663;BME280;69130;48.724;8.982;2023-04-21T10:49:56;95991.28;;;29.16;25.52
79663;BME280;69130;48.724;8.982;2023-04-21T10:52:29;95984.59;;;29.12;26.75
79663;BME280;69130;48.724;8.982;2023-04-21T10:57:20;95981.88;;;28.64;25.71
79663;BME280;69130;48.724;8.982;2023-04-21T10:59:47;95979.50;;;28.68;26.37
79663;BME280;69130;48.724;8.982;2023-04-21T11:02:14;95971.09;;;29.47;26.56
79663;BME280;69130;48.724;8.982;2023-04-21T11:04:41;95976.84;;;28.25;27.48
79663;BME280;69130;48.724;8.982;2023-04-21T11:07:16;95982.66;;;28.28;27.26
79663;BME280;69130;48.724;8.982;2023-04-21T11:09:44;95973.41;;;27.87;28.87
79663;BME280;69130;48.724;8.982;2023-04-21T11:12:14;95978.78;;;28.18;29.01
79663;BME280;69130;48.724;8.982;2023-04-21T11:14:44;95976.81;;;28.97;27.33
79663;BME280;69130;48.724;8.982;2023-04-21T11:17:15;95975.03;;;28.19;28.10
79663;BME280;69130;48.724;8.982;2023-04-21T11:19:44;95971.66;;;27.99;27.83
79663;BME280;69130;48.724;8.982;2023-04-21T11:22:10;95968.97;;;27.92;29.11
79663;BME280;69130;48.724;8.982;2023-04-21T11:24:35;95965.28;;;29.43;27.38
79663;BME280;69130;48.724;8.982;2023-04-21T11:27:01;95972.25;;;28.62;27.77
79663;BME280;69130;48.724;8.982;2023-04-21T11:29:27;95968.69;;;29.09;27.64
79663;BME280;69130;48.724;8.982;2023-04-21T11:31:55;95966.63;;;27.78;28.06
79663;BME280;69130;48.724;8.982;2023-04-21T11:34:21;95948.41;;;26.91;29.46
79663;BME280;69130;48.724;8.982;2023-04-21T11:36:47;95954.72;;;26.85;31.21
79663;BME280;69130;48.724;8.982;2023-04-21T11:39:15;95963.78;;;27.04;29.13
79663;BME280;69130;48.724;8.982;2023-04-21T11:41:43;95958.06;;;26.81;28.58
79663;BME280;69130;48.724;8.982;2023-04-21T11:44:10;95956.66;;;25.88;30.45
79663;BME280;69130;48.724;8.982;2023-04-21T11:46:36;95960.72;;;24.19;33.34
79663;BME280;69130;48.724;8.982;2023-04-21T11:49:10;95952.56;;;24.66;34.03
79663;BME280;69130;48.724;8.982;2023-04-21T11:51:42;95954.00;;;25.68;32.26
79663;BME280;69130;48.724;8.982;2023-04-21T11:54:11;95954.97;;;26.13;32.35
79663;BME280;69130;48.724;8.982;2023-04-21T11:56:42;95956.22;;;26.11;32.36
79663;BME280;69130;48.724;8.982;2023-04-21T12:01:44;95954.81;;;25.88;31.13
79663;BME280;69130;48.724;8.982;2023-04-21T12:06:43;95946.91;;;25.48;32.37
79663;BME280;69130;48.724;8.982;2023-04-21T12:09:16;95940.81;;;25.13;33.93
79663;BME280;69130;48.724;8.982;2023-04-21T12:11:42;95942.63;;;24.86;33.31
79663;BME280;69130;48.724;8.982;2023-04-21T12:14:07;95938.44;;;24.23;35.32
79663;BME280;69130;48.724;8.982;2023-04-21T12:16:36;95925.38;;;25.00;33.41
79663;BME280;69130;48.724;8.982;2023-04-21T12:19:01;95925.84;;;25.37;34.72
79663;BME280;69130;48.724;8.982;2023-04-21T12:21:27;95934.00;;;25.43;32.33
79663;BME280;69130;48.724;8.982;2023-04-21T12:23:52;95927.13;;;25.41;34.04
79663;BME280;69130;48.724;8.982;2023-04-21T12:26:18;95926.03;;;24.96;33.23
79663;BME280;69130;48.724;8.982;2023-04-21T12:28:43;95921.66;;;25.21;32.84
79663;BME280;69130;48.724;8.982;2023-04-21T12:31:09;95916.59;;;24.79;31.55
79663;BME280;69130;48.724;8.982;2023-04-21T12:33:34;95924.38;;;25.21;31.57
79663;BME280;69130;48.724;8.982;2023-04-21T12:36:00;95927.47;;;25.05;33.12
79663;BME280;69130;48.724;8.982;2023-04-21T12:38:25;95921.16;;;23.50;35.17
79663;BME280;69130;48.724;8.982;2023-04-21T12:40:51;95914.44;;;22.19;37.61
79663;BME280;69130;48.724;8.982;2023-04-21T12:43:16;95911.97;;;22.74;36.83
79663;BME280;69130;48.724;8.982;2023-04-21T12:45:41;95908.38;;;22.31;37.31
79663;BME280;69130;48.724;8.982;2023-04-21T12:48:07;95911.84;;;22.61;37.88
79663;BME280;69130;48.724;8.982;2023-04-21T12:50:32;95912.38;;;23.41;37.05
79663;BME280;69130;48.724;8.982;2023-04-21T12:52:58;95909.78;;;24.36;36.80
79663;BME280;69130;48.724;8.982;2023-04-21T12:55:24;95906.94;;;24.50;35.08
79663;BME280;69130;48.724;8.982;2023-04-21T12:57:49;95905.19;;;25.16;32.50
79663;BME280;69130;48.724;8.982;2023-04-21T13:00:17;95915.28;;;23.39;34.99
79663;BME280;69130;48.724;8.982;2023-04-21T13:02:42;95906.63;;;24.25;35.65
79663;BME280;69130;48.724;8.982;2023-04-21T13:05:08;95902.69;;;25.08;32.45
79663;BME280;69130;48.724;8.982;2023-04-21T13:07:36;95891.22;;;25.71;32.53
79663;BME280;69130;48.724;8.982;2023-04-21T13:10:02;95898.31;;;25.66;33.81
79663;BME280;69130;48.724;8.982;2023-04-21T13:12:29;95906.19;;;25.93;31.71
79663;BME280;69130;48.724;8.982;2023-04-21T13:14:54;95909.38;;;26.48;32.05
79663;BME280;69130;48.724;8.982;2023-04-21T13:17:20;95903.72;;;26.43;31.59
79663;BME280;69130;48.724;8.982;2023-04-21T13:19:45;95905.41;;;24.95;34.09